Time;durP1;ratioP1;P1;durP2;ratioP2;P2;SDS_P1;SDS_P2;PMS_P1;PMS_P2;Temp;Humidity;BMP_temperature;BMP_pressure;BME280_temperature;BME280_humidity;BME280_pressure;Samples;Min_cycle;Max_cycle;Signal;HPM_P1;HPM_P2
2023/05/29 00:02:08;;;;;;;6.00;3.50;;;15.80;99.90;;;;;;5096904;28;20503;-66
2023/05/29 00:04:36;;;;;;;7.20;4.17;;;15.80;99.90;;;;;;5096711;28;20464;-66
2023/05/29 00:07:06;;;;;;;5.33;3.93;;;15.70;99.90;;;;;;5096494;28;20487;-68
2023/05/29 00:09:33;;;;;;;8.93;4.07;;;15.70;99.90;;;;;;5096434;28;20854;-67
2023/05/29 00:12:01;;;;;;;9.07;4.03;;;15.70;99.90;;;;;;5096834;28;20556;-67
2023/05/29 00:14:27;;;;;;;8.33;4.20;;;15.60;99.90;;;;;;5096664;28;20518;-67
2023/05/29 00:16:54;;;;;;;8.73;4.03;;;15.60;99.90;;;;;;5096457;28;20463;-67
2023/05/29 00:19:21;;;;;;;8.00;3.97;;;15.50;99.90;;;;;;5096675;28;20449;-67
2023/05/29 00:21:48;;;;;;;6.30;4.00;;;15.50;99.90;;;;;;5096332;28;20564;-66
2023/05/29 00:24:16;;;;;;;7.20;4.40;;;15.50;99.90;;;;;;5096182;28;20453;-68
2023/05/29 00:26:44;;;;;;;7.27;4.00;;;15.40;99.90;;;;;;5096079;28;20502;-68
2023/05/29 00:29:11;;;;;;;7.00;3.57;;;15.40;99.90;;;;;;5096509;28;20544;-67
2023/05/29 00:31:38;;;;;;;8.30;4.10;;;15.40;99.90;;;;;;5096729;28;20552;-67
2023/05/29 00:34:04;;;;;;;9.70;3.97;;;15.30;99.90;;;;;;5095705;28;20464;-68
2023/05/29 00:36:32;;;;;;;6.87;3.90;;;15.20;99.90;;;;;;5096412;28;20481;-68
2023/05/29 00:38:58;;;;;;;10.80;4.10;;;15.30;99.90;;;;;;5096643;28;20546;-68
2023/05/29 00:41:27;;;;;;;7.30;3.70;;;15.20;99.90;;;;;;5096503;28;20921;-68
2023/05/29 00:43:53;;;;;;;7.17;3.70;;;15.20;99.90;;;;;;5096246;28;20487;-68
2023/05/29 00:46:21;;;;;;;10.60;3.70;;;15.20;99.90;;;;;;5095746;28;20457;-68
2023/05/29 00:48:49;;;;;;;8.03;4.27;;;15.20;99.90;;;;;;5095994;28;20483;-67
2023/05/29 00:51:16;;;;;;;7.27;3.80;;;15.20;99.90;;;;;;5095782;28;20492;-67
2023/05/29 00:53:44;;;;;;;10.30;4.07;;;15.20;99.90;;;;;;5096097;28;20450;-67
2023/05/29 00:56:12;;;;;;;5.50;3.77;;;15.20;99.90;;;;;;5095925;28;20469;-68
2023/05/29 00:58:40;;;;;;;6.60;3.63;;;15.20;99.90;;;;;;5095871;28;20558;-67
2023/05/29 01:01:07;;;;;;;8.10;4.23;;;15.20;99.90;;;;;;5095502;28;20468;-68
2023/05/29 01:03:35;;;;;;;7.80;3.70;;;15.20;99.90;;;;;;5095188;28;20483;-70
2023/05/29 01:06:03;;;;;;;8.10;4.33;;;15.10;99.90;;;;;;5096041;28;20449;-68
2023/05/29 01:08:30;;;;;;;7.53;4.33;;;15.10;99.90;;;;;;5095307;28;20457;-68
2023/05/29 01:11:04;;;;;;;6.83;4.63;;;15.10;99.90;;;;;;5095556;28;20453;-68
2023/05/29 01:13:35;;;;;;;9.13;4.13;;;15.10;99.90;;;;;;5095311;28;20433;-68
2023/05/29 01:16:13;;;;;;;6.10;3.93;;;15.00;99.90;;;;;;5095682;28;20442;-67
2023/05/29 01:18:46;;;;;;;7.10;3.80;;;14.90;99.90;;;;;;5095607;28;20441;-68
2023/05/29 01:21:27;;;;;;;7.20;4.20;;;14.90;99.90;;;;;;5095162;28;20532;-68
2023/05/29 01:24:02;;;;;;;8.40;4.80;;;14.90;99.90;;;;;;5095111;28;20530;-67
2023/05/29 01:26:46;;;;;;;6.23;4.50;;;14.80;99.90;;;;;;5095233;28;20468;-67
2023/05/29 01:29:16;;;;;;;5.83;3.67;;;14.80;99.90;;;;;;5095338;28;20550;-68
2023/05/29 01:31:44;;;;;;;8.70;4.70;;;14.70;99.90;;;;;;5095840;28;20875;-68
2023/05/29 01:34:11;;;;;;;6.83;4.53;;;14.70;99.90;;;;;;5095229;28;20930;-68
2023/05/29 01:36:38;;;;;;;12.20;5.20;;;14.60;99.90;;;;;;5095034;28;20497;-68
2023/05/29 01:39:06;;;;;;;7.87;4.13;;;14.60;99.90;;;;;;5095173;28;20441;-68
2023/05/29 01:41:35;;;;;;;7.77;3.90;;;14.60;99.90;;;;;;5094828;28;20556;-68
2023/05/29 01:44:08;;;;;;;17.87;5.60;;;14.50;99.90;;;;;;5094971;28;20536;-69
2023/05/29 01:46:36;;;;;;;7.83;4.70;;;14.40;99.90;;;;;;5094836;28;20464;-68
2023/05/29 01:49:03;;;;;;;9.53;4.50;;;14.40;99.90;;;;;;5095048;28;20813;-68
2023/05/29 01:51:31;;;;;;;11.53;4.93;;;14.40;99.90;;;;;;5094860;28;20480;-68
2023/05/29 01:53:59;;;;;;;8.13;4.53;;;14.30;99.90;;;;;;5094659;28;20453;-68
2023/05/29 01:56:27;;;;;;;11.40;4.30;;;14.30;99.90;;;;;;5094575;28;20460;-68
2023/05/29 01:58:55;;;;;;;8.90;4.23;;;14.20;99.90;;;;;;5094476;28;20902;-68
2023/05/29 02:01:24;;;;;;;7.50;3.93;;;14.20;99.90;;;;;;5094734;28;20453;-68
2023/05/29 02:03:51;;;;;;;8.33;4.53;;;14.20;99.90;;;;;;5094814;28;20481;-68
2023/05/29 02:06:18;;;;;;;9.70;4.77;;;14.20;99.90;;;;;;5094793;28;20449;-68
2023/05/29 02:08:46;;;;;;;7.23;4.20;;;14.10;99.90;;;;;;5094672;28;20467;-68
2023/05/29 02:11:12;;;;;;;6.07;4.37;;;14.10;99.90;;;;;;5094728;28;20457;-67
2023/05/29 02:13:39;;;;;;;15.53;4.60;;;14.00;99.90;;;;;;5094487;28;20449;-68
2023/05/29 02:16:06;;;;;;;11.60;5.10;;;14.00;99.90;;;;;;5094387;28;20463;-67
2023/05/29 02:18:35;;;;;;;6.90;4.60;;;14.00;99.90;;;;;;5094349;28;20453;-68
2023/05/29 02:21:02;;;;;;;7.83;4.53;;;14.00;99.90;;;;;;5094477;28;20794;-67
2023/05/29 02:23:29;;;;;;;7.07;3.90;;;13.90;99.90;;;;;;5094103;28;20957;-68
2023/05/29 02:25:56;;;;;;;8.47;4.53;;;13.90;99.90;;;;;;5094303;28;20948;-68
2023/05/29 02:28:23;;;;;;;10.27;4.70;;;13.90;99.90;;;;;;5094409;28;20476;-68
2023/05/29 02:30:50;;;;;;;16.23;4.43;;;13.90;99.90;;;;;;5094521;28;20552;-68
2023/05/29 02:33:16;;;;;;;6.97;4.77;;;13.90;99.90;;;;;;5094385;28;20449;-67
2023/05/29 02:35:44;;;;;;;9.87;5.13;;;13.90;99.90;;;;;;5093945;28;20453;-67
2023/05/29 02:38:11;;;;;;;6.30;4.30;;;13.80;99.90;;;;;;5093962;28;20491;-68
2023/05/29 02:40:38;;;;;;;7.00;3.87;;;13.80;99.90;;;;;;5094239;28;20453;-67
2023/05/29 02:43:06;;;;;;;9.67;4.50;;;13.80;99.90;;;;;;5093883;28;20965;-67
2023/05/29 02:45:33;;;;;;;7.90;4.47;;;13.80;99.90;;;;;;5094276;28;20453;-69
2023/05/29 02:48:00;;;;;;;5.30;3.93;;;13.70;99.90;;;;;;5094125;28;20453;-67
2023/05/29 02:50:27;;;;;;;8.90;3.93;;;13.70;99.90;;;;;;5093634;28;20457;-67
2023/05/29 02:52:55;;;;;;;6.37;4.47;;;13.70;99.90;;;;;;5093872;28;20548;-67
2023/05/29 02:55:22;;;;;;;9.77;4.50;;;13.60;99.90;;;;;;5093942;28;20453;-68
2023/05/29 02:57:52;;;;;;;7.30;4.70;;;13.60;99.90;;;;;;5095710;28;20452;-66
2023/05/29 03:00:20;;;;;;;8.03;4.63;;;13.60;99.90;;;;;;5098146;28;20465;-67
2023/05/29 03:02:47;;;;;;;9.33;4.60;;;13.60;99.90;;;;;;5097849;28;20488;-67
2023/05/29 03:05:14;;;;;;;7.60;4.80;;;13.50;99.90;;;;;;5097569;28;20457;-68
2023/05/29 03:07:41;;;;;;;9.00;4.73;;;13.50;99.90;;;;;;5098083;28;20485;-66
2023/05/29 03:10:10;;;;;;;6.03;3.93;;;13.50;99.90;;;;;;5097887;28;20468;-66
2023/05/29 03:12:37;;;;;;;5.87;4.50;;;13.40;99.90;;;;;;5097587;28;20514;-67
2023/05/29 03:15:05;;;;;;;8.67;4.27;;;13.40;99.90;;;;;;5097710;28;20461;-67
2023/05/29 03:17:31;;;;;;;7.90;4.10;;;13.30;99.90;;;;;;5097398;28;20577;-68
2023/05/29 03:19:58;;;;;;;8.47;5.10;;;13.30;99.90;;;;;;5097315;28;20769;-68
2023/05/29 03:22:25;;;;;;;8.47;4.60;;;13.30;99.90;;;;;;5097130;28;20460;-68
2023/05/29 03:24:52;;;;;;;6.47;4.53;;;13.20;99.90;;;;;;5097401;28;20465;-68
2023/05/29 03:27:20;;;;;;;9.80;4.57;;;13.20;99.90;;;;;;5097493;28;20453;-68
2023/05/29 03:29:47;;;;;;;6.80;4.77;;;13.10;99.90;;;;;;5097402;28;20457;-68
2023/05/29 03:32:14;;;;;;;7.47;4.33;;;13.10;99.90;;;;;;5097452;28;20627;-68
2023/05/29 03:34:41;;;;;;;8.77;4.30;;;13.00;99.90;;;;;;5096874;28;20536;-68
2023/05/29 03:37:07;;;;;;;8.23;3.90;;;13.00;99.90;;;;;;5097294;28;20495;-68
2023/05/29 03:39:34;;;;;;;5.97;3.97;;;13.00;99.90;;;;;;5096997;28;20552;-68
2023/05/29 03:42:02;;;;;;;7.60;4.60;;;13.00;99.90;;;;;;5097330;28;20540;-66
2023/05/29 03:44:30;;;;;;;7.23;4.37;;;13.00;99.90;;;;;;5096690;28;20503;-69
2023/05/29 03:46:57;;;;;;;10.00;4.10;;;13.00;99.90;;;;;;5096922;28;20464;-66
2023/05/29 03:49:24;;;;;;;5.50;4.00;;;13.00;99.90;;;;;;5097031;28;20783;-66
2023/05/29 03:51:51;;;;;;;5.93;4.20;;;13.00;99.90;;;;;;5096923;28;20453;-68
2023/05/29 03:54:18;;;;;;;6.17;4.13;;;13.00;99.90;;;;;;5097185;28;20460;-67
2023/05/29 03:56:45;;;;;;;6.80;4.50;;;13.00;99.90;;;;;;5096751;28;20453;-67
2023/05/29 03:59:12;;;;;;;6.00;3.87;;;13.00;99.90;;;;;;5096413;28;20914;-67
2023/05/29 04:01:40;;;;;;;6.77;4.17;;;13.00;99.90;;;;;;5096083;28;20464;-67
2023/05/29 04:04:07;;;;;;;6.17;3.87;;;13.10;99.90;;;;;;5096155;28;20482;-67
2023/05/29 04:06:38;;;;;;;9.50;3.90;;;13.10;99.90;;;;;;5096203;28;20457;-67
2023/05/29 04:09:06;;;;;;;5.50;3.90;;;13.10;99.90;;;;;;5096582;28;20452;-67
2023/05/29 04:11:34;;;;;;;6.43;4.03;;;13.20;99.90;;;;;;5096642;28;20457;-67
2023/05/29 04:14:01;;;;;;;5.17;3.60;;;13.20;99.90;;;;;;5096273;28;20450;-67
2023/05/29 04:16:28;;;;;;;5.60;4.10;;;13.30;99.90;;;;;;5096525;28;20453;-67
2023/05/29 04:18:56;;;;;;;6.70;4.07;;;13.30;99.90;;;;;;5095865;28;20460;-67
2023/05/29 04:21:23;;;;;;;7.10;4.53;;;13.30;99.90;;;;;;5096314;28;20453;-67
2023/05/29 04:23:50;;;;;;;6.70;4.23;;;13.40;99.90;;;;;;5095870;28;20995;-66
2023/05/29 04:26:17;;;;;;;5.20;3.57;;;13.50;99.90;;;;;;5096258;28;20453;-66
2023/05/29 04:28:44;;;;;;;4.90;3.83;;;13.50;99.90;;;;;;5095987;28;20949;-67
2023/05/29 04:31:13;;;;;;;9.90;3.80;;;13.60;99.90;;;;;;5096052;28;20453;-68
2023/05/29 04:33:41;;;;;;;6.23;3.50;;;13.70;99.90;;;;;;5096246;28;20794;-67
2023/05/29 04:36:10;;;;;;;5.37;3.57;;;13.70;99.90;;;;;;5095884;28;20454;-67
2023/05/29 04:38:37;;;;;;;8.97;4.70;;;13.80;99.90;;;;;;5095803;28;20927;-67
2023/05/29 04:41:04;;;;;;;6.00;3.60;;;13.80;99.90;;;;;;5095936;28;20459;-67
2023/05/29 04:43:31;;;;;;;8.70;4.07;;;13.90;99.90;;;;;;5095573;28;20877;-67
2023/05/29 04:45:58;;;;;;;6.43;3.90;;;13.90;99.90;;;;;;5095867;28;20464;-67
2023/05/29 04:48:26;;;;;;;6.27;4.03;;;14.00;99.90;;;;;;5095732;28;20457;-66
2023/05/29 04:50:53;;;;;;;5.33;3.73;;;14.10;99.90;;;;;;5095755;28;20544;-67
2023/05/29 04:53:23;;;;;;;6.00;3.63;;;14.10;99.90;;;;;;5095723;28;20753;-66
2023/05/29 04:55:50;;;;;;;6.33;3.90;;;14.20;99.90;;;;;;5096170;28;20489;-67
2023/05/29 04:58:17;;;;;;;7.00;4.00;;;14.20;99.90;;;;;;5095530;28;20961;-66
2023/05/29 05:00:44;;;;;;;6.30;4.20;;;14.30;99.90;;;;;;5095799;28;20467;-67
2023/05/29 05:03:11;;;;;;;7.10;4.13;;;14.30;99.90;;;;;;5095491;28;20457;-66
2023/05/29 05:05:38;;;;;;;5.27;3.90;;;14.40;99.90;;;;;;5095737;28;20461;-66
2023/05/29 05:08:05;;;;;;;4.50;3.30;;;14.40;99.90;;;;;;5095714;28;20464;-67
2023/05/29 05:10:33;;;;;;;4.30;3.63;;;14.40;99.90;;;;;;5095705;28;20457;-67
2023/05/29 05:13:02;;;;;;;4.43;3.47;;;14.50;99.90;;;;;;5095552;28;20548;-66
2023/05/29 05:15:29;;;;;;;8.10;3.30;;;14.50;99.90;;;;;;5095872;28;20468;-67
2023/05/29 05:17:56;;;;;;;5.03;3.40;;;14.60;99.90;;;;;;5095461;28;20457;-67
2023/05/29 05:20:23;;;;;;;6.03;3.60;;;14.60;99.90;;;;;;5095007;28;20548;-67
2023/05/29 05:22:50;;;;;;;6.53;4.20;;;14.60;99.90;;;;;;5095281;28;20854;-67
2023/05/29 05:25:17;;;;;;;5.70;3.20;;;14.60;99.90;;;;;;5095372;28;20520;-67
2023/05/29 05:27:45;;;;;;;4.60;3.20;;;14.60;99.90;;;;;;5095182;28;20457;-67
2023/05/29 05:30:13;;;;;;;4.17;3.20;;;14.60;99.90;;;;;;5095314;28;20928;-67
2023/05/29 05:32:40;;;;;;;3.10;2.80;;;14.60;99.90;;;;;;5095193;28;20762;-66
2023/05/29 05:35:08;;;;;;;4.97;3.20;;;14.60;99.90;;;;;;5094750;28;20459;-67
2023/05/29 05:37:35;;;;;;;13.50;10.27;;;14.60;99.90;;;;;;5094713;28;20481;-67
2023/05/29 05:40:03;;;;;;;12.27;9.00;;;14.70;99.90;;;;;;5095284;28;20454;-66
2023/05/29 05:42:30;;;;;;;5.00;3.53;;;14.70;99.90;;;;;;5094710;28;20449;-67
2023/05/29 05:44:58;;;;;;;3.60;2.93;;;14.80;99.90;;;;;;5095175;28;20491;-67
2023/05/29 05:47:27;;;;;;;6.90;5.90;;;14.80;99.90;;;;;;5094987;28;20552;-67
2023/05/29 05:49:54;;;;;;;5.00;4.20;;;14.80;99.90;;;;;;5094974;28;20461;-67
2023/05/29 05:52:22;;;;;;;3.93;2.70;;;14.90;99.90;;;;;;5094511;28;20902;-66
2023/05/29 05:54:49;;;;;;;4.10;2.80;;;14.90;99.90;;;;;;5094695;28;20493;-66
2023/05/29 05:57:16;;;;;;;3.97;2.70;;;14.90;99.90;;;;;;5094828;28;20464;-67
2023/05/29 05:59:42;;;;;;;3.80;2.50;;;15.00;99.90;;;;;;5094431;28;20564;-67
2023/05/29 06:02:11;;;;;;;3.43;2.70;;;15.00;99.90;;;;;;5094718;28;20465;-67
2023/05/29 06:04:37;;;;;;;3.10;2.67;;;15.00;99.90;;;;;;5095170;28;20567;-67
2023/05/29 06:07:06;;;;;;;5.90;3.03;;;15.10;99.90;;;;;;5094366;28;20457;-67
2023/05/29 06:09:32;;;;;;;9.53;8.63;;;15.10;99.90;;;;;;5094261;28;20464;-67
2023/05/29 06:11:59;;;;;;;6.37;3.80;;;15.20;99.90;;;;;;5094747;28;20475;-66
2023/05/29 06:14:27;;;;;;;4.03;2.80;;;15.30;99.90;;;;;;5094476;28;20466;-67
2023/05/29 06:16:54;;;;;;;3.30;2.50;;;15.40;99.90;;;;;;5094377;28;20543;-67
2023/05/29 06:19:22;;;;;;;5.03;2.70;;;15.40;99.90;;;;;;5094176;28;20456;-67
2023/05/29 06:21:49;;;;;;;5.00;2.97;;;15.50;99.90;;;;;;5094394;28;20479;-67
2023/05/29 06:24:16;;;;;;;6.97;2.93;;;15.60;99.90;;;;;;5094235;28;20477;-67
2023/05/29 06:26:43;;;;;;;3.57;2.90;;;15.70;99.90;;;;;;5094421;28;20461;-67
2023/05/29 06:29:10;;;;;;;7.53;4.10;;;15.80;99.90;;;;;;5094664;28;20496;-67
2023/05/29 06:31:37;;;;;;;3.63;2.73;;;15.90;99.90;;;;;;5094444;28;20457;-67
2023/05/29 06:34:04;;;;;;;3.53;2.27;;;16.00;99.90;;;;;;5098031;28;20461;-67
2023/05/29 06:36:32;;;;;;;3.40;2.60;;;16.00;99.90;;;;;;5098406;28;20768;-67
2023/05/29 06:38:59;;;;;;;4.57;2.50;;;16.10;99.90;;;;;;5098396;28;20456;-67
2023/05/29 06:41:26;;;;;;;3.73;2.73;;;16.10;99.90;;;;;;5098520;28;20454;-67
2023/05/29 06:43:53;;;;;;;2.93;2.57;;;16.10;99.90;;;;;;5098396;28;20564;-67
2023/05/29 06:46:20;;;;;;;4.67;3.20;;;16.20;99.90;;;;;;5098099;28;20456;-67
2023/05/29 06:48:46;;;;;;;4.70;3.90;;;16.30;99.90;;;;;;5098666;28;20464;-67
2023/05/29 06:51:13;;;;;;;3.10;2.70;;;16.30;99.90;;;;;;5098616;28;20453;-67
2023/05/29 06:53:42;;;;;;;4.07;2.50;;;16.40;99.90;;;;;;5098470;28;20452;-67
2023/05/29 06:56:09;;;;;;;5.27;3.03;;;16.40;99.90;;;;;;5098328;28;20541;-67
2023/05/29 06:58:36;;;;;;;3.20;2.43;;;16.40;99.90;;;;;;5098279;28;20465;-67
2023/05/29 07:01:24;;;;;;;3.37;2.53;;;16.50;99.90;;;;;;5098261;28;20453;-68
2023/05/29 07:03:53;;;;;;;3.77;2.60;;;16.60;99.90;;;;;;5097972;28;20917;-67
2023/05/29 07:06:20;;;;;;;3.83;2.20;;;16.60;99.90;;;;;;5097877;28;20948;-67
2023/05/29 07:08:48;;;;;;;3.53;2.90;;;16.70;99.90;;;;;;5097934;28;20905;-67
2023/05/29 07:11:15;;;;;;;3.60;2.33;;;16.80;99.90;;;;;;5097663;28;20453;-67
2023/05/29 07:13:41;;;;;;;2.53;2.27;;;16.90;99.90;;;;;;5097570;28;20453;-67
2023/05/29 07:16:08;;;;;;;2.30;2.10;;;17.00;99.90;;;;;;5097823;28;20468;-67
2023/05/29 07:18:35;;;;;;;3.13;2.57;;;17.20;99.90;;;;;;5097934;28;20553;-67
2023/05/29 07:21:02;;;;;;;2.33;2.00;;;17.30;99.90;;;;;;5097470;28;20522;-66
2023/05/29 07:23:29;;;;;;;4.20;2.93;;;17.40;99.90;;;;;;5097330;28;20453;-69
2023/05/29 07:25:57;;;;;;;3.77;2.30;;;17.50;99.90;;;;;;5097282;28;20484;-67
2023/05/29 07:28:24;;;;;;;2.17;1.93;;;17.60;99.90;;;;;;5097924;28;20453;-66
2023/05/29 07:30:51;;;;;;;3.03;1.83;;;17.60;99.90;;;;;;5097675;28;20536;-66
2023/05/29 07:33:18;;;;;;;3.03;2.20;;;17.70;99.90;;;;;;5097642;28;20467;-69
2023/05/29 07:35:45;;;;;;;2.27;2.07;;;17.70;99.90;;;;;;5097887;28;20908;-67
2023/05/29 07:38:12;;;;;;;3.17;2.00;;;17.80;99.90;;;;;;5097163;28;20532;-67
2023/05/29 07:40:39;;;;;;;7.43;2.60;;;17.80;99.90;;;;;;5097201;28;20944;-66
2023/05/29 07:43:07;;;;;;;5.70;4.13;;;18.00;99.90;;;;;;5097105;28;20453;-67
2023/05/29 07:45:34;;;;;;;8.40;7.33;;;18.10;99.90;;;;;;5097336;28;20598;-67
2023/05/29 07:48:00;;;;;;;4.23;2.40;;;18.10;99.90;;;;;;5097292;28;20541;-67
2023/05/29 07:50:27;;;;;;;4.13;3.00;;;18.30;99.90;;;;;;5097291;28;20453;-66
2023/05/29 07:52:55;;;;;;;6.50;3.30;;;18.40;99.90;;;;;;5096897;28;20510;-68
2023/05/29 07:55:22;;;;;;;21.37;2.93;;;18.40;99.90;;;;;;5096816;28;20514;-66
2023/05/29 07:57:49;;;;;;;6.43;3.30;;;18.50;99.90;;;;;;5096652;28;20472;-66
2023/05/29 08:00:18;;;;;;;6.17;2.93;;;18.50;99.90;;;;;;5096974;28;20469;-66
2023/05/29 08:02:45;;;;;;;3.30;3.00;;;18.60;99.90;;;;;;5096618;28;20461;-67
2023/05/29 08:05:12;;;;;;;3.13;2.27;;;18.70;99.90;;;;;;5097039;28;20477;-66
2023/05/29 08:07:39;;;;;;;5.03;2.53;;;18.80;99.90;;;;;;5097094;28;21002;-66
2023/05/29 08:10:07;;;;;;;3.77;2.40;;;18.90;99.90;;;;;;5096558;28;20536;-67
2023/05/29 08:12:35;;;;;;;3.03;2.03;;;19.00;99.90;;;;;;5096745;28;20453;-67
2023/05/29 08:15:02;;;;;;;4.10;2.63;;;19.10;99.90;;;;;;5096750;28;20449;-66
2023/05/29 08:17:30;;;;;;;2.70;2.50;;;19.20;99.90;;;;;;5096450;28;20463;-67
2023/05/29 08:19:57;;;;;;;3.83;2.20;;;19.30;99.90;;;;;;5096611;28;20465;-67
2023/05/29 08:22:30;;;;;;;3.13;2.30;;;19.30;99.90;;;;;;5096215;28;20460;-67
2023/05/29 08:24:57;;;;;;;2.63;1.97;;;19.30;99.90;;;;;;5096148;28;20957;-67
2023/05/29 08:27:23;;;;;;;1.97;1.77;;;19.30;99.90;;;;;;5096305;28;20453;-67
2023/05/29 08:29:50;;;;;;;3.30;2.30;;;19.30;98.10;;;;;;5096428;28;20485;-67
2023/05/29 08:32:17;;;;;;;4.43;2.90;;;19.30;98.10;;;;;;5096336;28;20522;-67
2023/05/29 08:34:46;;;;;;;2.37;2.07;;;19.20;99.00;;;;;;5096014;28;20475;-67
2023/05/29 08:37:13;;;;;;;5.87;2.50;;;19.10;98.30;;;;;;5095842;28;20852;-67
2023/05/29 08:39:40;;;;;;;2.47;2.00;;;19.10;97.80;;;;;;5095779;28;20489;-67
2023/05/29 08:42:11;;;;;;;2.70;2.07;;;19.10;95.50;;;;;;5095861;28;20453;-67
2023/05/29 08:44:40;;;;;;;3.20;2.10;;;19.00;95.70;;;;;;5096300;28;20465;-67
2023/05/29 08:47:10;;;;;;;2.90;2.63;;;19.10;96.00;;;;;;5096229;28;20457;-67
2023/05/29 08:49:42;;;;;;;4.30;2.20;;;19.10;96.80;;;;;;5095958;28;20548;-67
2023/05/29 08:52:16;;;;;;;3.27;2.50;;;19.20;96.80;;;;;;5095952;28;20601;-67
2023/05/29 08:54:44;;;;;;;3.00;2.07;;;19.20;97.30;;;;;;5095094;28;20441;-67
2023/05/29 08:57:12;;;;;;;2.77;2.37;;;19.20;96.60;;;;;;5095689;28;20787;-67
2023/05/29 08:59:42;;;;;;;7.47;2.47;;;19.30;95.80;;;;;;5095458;28;21013;-66
2023/05/29 09:02:10;;;;;;;3.30;2.03;;;19.30;95.60;;;;;;5095788;28;20453;-67
2023/05/29 09:04:37;;;;;;;3.83;2.17;;;19.40;95.60;;;;;;5095955;28;20801;-67
2023/05/29 09:07:05;;;;;;;3.13;2.10;;;19.40;96.30;;;;;;5095890;28;20453;-67
2023/05/29 09:09:33;;;;;;;3.53;2.50;;;19.30;96.10;;;;;;5095454;28;20464;-67
2023/05/29 09:12:00;;;;;;;3.13;2.20;;;19.30;96.00;;;;;;5095590;28;20495;-67
2023/05/29 09:14:35;;;;;;;2.60;2.30;;;19.40;96.40;;;;;;5095093;28;20457;-67
2023/05/29 09:17:02;;;;;;;3.30;2.50;;;19.30;96.30;;;;;;5095456;28;20510;-67
2023/05/29 09:19:29;;;;;;;3.40;2.50;;;19.40;96.30;;;;;;5095250;28;20906;-67
2023/05/29 09:22:02;;;;;;;3.97;2.20;;;19.40;97.20;;;;;;5095105;28;20454;-67
2023/05/29 09:24:29;;;;;;;3.40;3.10;;;19.40;97.80;;;;;;5095147;28;21074;-67
2023/05/29 09:26:59;;;;;;;3.60;2.53;;;19.50;97.40;;;;;;5095417;28;20496;-67
2023/05/29 09:29:26;;;;;;;2.80;2.57;;;19.60;95.90;;;;;;5095320;28;20454;-68
2023/05/29 09:31:53;;;;;;;4.33;2.53;;;19.70;95.30;;;;;;5095293;28;20932;-67
2023/05/29 09:34:20;;;;;;;3.00;2.50;;;19.80;93.80;;;;;;5094837;28;20457;-67
2023/05/29 09:36:46;;;;;;;2.73;2.47;;;19.90;94.00;;;;;;5094665;28;20568;-67
2023/05/29 09:39:14;;;;;;;6.40;3.80;;;20.00;94.30;;;;;;5094633;28;20433;-67
2023/05/29 09:41:43;;;;;;;5.53;4.50;;;20.20;92.20;;;;;;5094970;28;20476;-67
2023/05/29 09:44:14;;;;;;;3.10;2.60;;;20.30;91.00;;;;;;5094561;28;20556;-67
2023/05/29 09:46:42;;;;;;;3.60;2.57;;;20.20;90.20;;;;;;5094337;28;20964;-67
2023/05/29 09:49:12;;;;;;;2.77;2.10;;;20.20;91.50;;;;;;5094522;28;20453;-67
2023/05/29 09:51:39;;;;;;;3.93;2.83;;;20.20;89.90;;;;;;5094306;28;20543;-67
2023/05/29 09:54:16;;;;;;;3.17;2.60;;;20.30;87.60;;;;;;5094659;28;20508;-67
2023/05/29 09:56:44;;;;;;;3.63;2.37;;;20.30;87.90;;;;;;5095024;28;20712;-67
2023/05/29 09:59:14;;;;;;;5.77;2.70;;;20.40;88.70;;;;;;5094582;28;20467;-68
2023/05/29 10:01:43;;;;;;;7.43;3.10;;;20.50;88.30;;;;;;5094973;28;20437;-67
2023/05/29 10:04:11;;;;;;;5.37;2.90;;;20.60;88.10;;;;;;5094306;28;20453;-67
2023/05/29 10:06:42;;;;;;;8.10;6.87;;;20.80;84.30;;;;;;5094461;28;20793;-68
2023/05/29 10:09:11;;;;;;;4.80;2.60;;;20.80;83.50;;;;;;5094235;28;20448;-67
2023/05/29 10:11:41;;;;;;;3.13;2.53;;;20.90;82.40;;;;;;5094870;28;20827;-67
2023/05/29 10:14:15;;;;;;;17.47;9.90;;;20.90;81.90;;;;;;5094486;28;20532;-67
2023/05/29 10:16:46;;;;;;;3.33;2.73;;;20.90;81.50;;;;;;5094154;28;20509;-67
2023/05/29 10:19:17;;;;;;;3.50;2.67;;;20.90;80.80;;;;;;5094315;28;20548;-67
2023/05/29 10:21:45;;;;;;;4.07;2.57;;;21.00;79.10;;;;;;5094221;28;20437;-67
2023/05/29 10:24:13;;;;;;;5.30;3.17;;;21.10;77.90;;;;;;5093907;28;20830;-66
2023/05/29 10:26:41;;;;;;;3.20;2.50;;;21.20;76.20;;;;;;5094099;28;20795;-69
2023/05/29 10:29:14;;;;;;;4.90;2.77;;;21.10;75.40;;;;;;5094489;28;20453;-68
2023/05/29 10:31:49;;;;;;;3.17;2.57;;;21.20;75.90;;;;;;5094398;28;20460;-66
2023/05/29 10:34:26;;;;;;;3.40;2.70;;;21.30;74.50;;;;;;5094011;28;20443;-67
2023/05/29 10:37:03;;;;;;;4.77;3.27;;;21.40;65.40;;;;;;5093755;28;20481;-67
2023/05/29 10:39:30;;;;;;;3.47;3.03;;;21.40;64.20;;;;;;5093852;28;20448;-67
2023/05/29 10:41:58;;;;;;;3.80;2.83;;;21.30;60.60;;;;;;5093860;28;20460;-68
2023/05/29 10:44:41;;;;;;;5.63;2.70;;;21.30;61.70;;;;;;5094109;28;20514;-69
2023/05/29 10:47:12;;;;;;;4.27;2.47;;;21.30;62.10;;;;;;5093995;28;20519;-69
2023/05/29 10:49:39;;;;;;;3.10;2.33;;;21.20;62.90;;;;;;5093633;28;20874;-68
2023/05/29 10:52:11;;;;;;;4.27;2.30;;;21.30;63.50;;;;;;5093710;28;20544;-67
2023/05/29 10:54:50;;;;;;;5.53;2.97;;;21.40;63.50;;;;;;5094518;28;20441;-69
2023/05/29 10:57:17;;;;;;;8.73;2.43;;;21.50;62.50;;;;;;5093906;28;20456;-67
2023/05/29 10:59:46;;;;;;;3.40;2.50;;;21.50;63.70;;;;;;5093447;28;20453;-67
2023/05/29 11:02:19;;;;;;;3.70;3.40;;;21.60;62.40;;;;;;5093813;28;20453;-67
2023/05/29 11:05:04;;;;;;;4.90;3.20;;;21.60;59.90;;;;;;5094199;28;20437;-67
2023/05/29 11:07:35;;;;;;;4.03;2.57;;;21.60;58.20;;;;;;5093930;28;20448;-68
2023/05/29 11:10:14;;;;;;;2.63;2.10;;;21.70;57.50;;;;;;5093496;28;20453;-68
2023/05/29 11:12:57;;;;;;;3.47;2.50;;;21.80;57.40;;;;;;5093894;28;20449;-68
2023/05/29 11:15:25;;;;;;;2.47;1.97;;;21.90;57.60;;;;;;5093745;28;20472;-68
2023/05/29 11:17:55;;;;;;;3.20;2.70;;;21.90;57.20;;;;;;5093739;28;20457;-68
2023/05/29 11:20:38;;;;;;;6.33;2.90;;;21.90;57.70;;;;;;5097677;28;20448;-68
2023/05/29 11:23:07;;;;;;;3.93;2.70;;;21.80;58.40;;;;;;5097509;28;20529;-68
2023/05/29 11:25:36;;;;;;;3.60;2.77;;;21.70;58.00;;;;;;5097684;28;20476;-68
2023/05/29 11:28:08;;;;;;;2.60;2.40;;;21.70;57.20;;;;;;5097452;28;20762;-68
2023/05/29 11:30:46;;;;;;;3.40;2.53;;;21.70;57.60;;;;;;5097406;28;20441;-68
2023/05/29 11:33:24;;;;;;;4.07;2.20;;;21.90;58.90;;;;;;5097627;28;20441;-68
2023/05/29 11:35:56;;;;;;;3.13;2.13;;;23.00;57.40;;;;;;5097121;28;20839;-68
2023/05/29 11:38:23;;;;;;;4.07;2.40;;;24.40;53.20;;;;;;5096988;28;20508;-68
2023/05/29 11:40:50;;;;;;;3.40;2.60;;;25.60;47.90;;;;;;5097457;28;20463;-68
2023/05/29 11:43:17;;;;;;;3.80;2.50;;;25.50;44.70;;;;;;5096798;28;20459;-68
2023/05/29 11:45:45;;;;;;;2.50;2.30;;;25.00;45.00;;;;;;5097155;28;20481;-68
2023/05/29 11:48:12;;;;;;;3.13;2.33;;;25.40;44.30;;;;;;5097002;28;20900;-68
2023/05/29 11:50:40;;;;;;;3.10;2.07;;;26.30;42.30;;;;;;5096908;28;20463;-68
2023/05/29 11:53:08;;;;;;;2.50;2.30;;;26.90;37.70;;;;;;5096881;28;20468;-68
2023/05/29 11:55:35;;;;;;;3.40;2.30;;;27.60;1.00;;;;;;5096544;28;20548;-68
2023/05/29 11:58:03;;;;;;;5.50;2.60;;;26.90;1.00;;;;;;5096789;28;20540;-68
2023/05/29 12:00:32;;;;;;;3.33;2.37;;;26.20;1.00;;;;;;5097091;28;20468;-68
2023/05/29 12:03:03;;;;;;;3.57;2.97;;;26.70;1.00;;;;;;5096729;28;20959;-68
2023/05/29 12:05:30;;;;;;;2.80;2.23;;;27.50;1.00;;;;;;5097481;28;20936;-69
2023/05/29 12:08:00;;;;;;;3.57;2.93;;;28.30;1.00;;;;;;5096951;28;20487;-68
2023/05/29 12:10:28;;;;;;;5.03;2.50;;;28.80;1.00;;;;;;5096745;28;20517;-68
2023/05/29 12:12:56;;;;;;;3.50;2.90;;;29.20;1.00;;;;;;5096186;28;20983;-68
2023/05/29 12:15:23;;;;;;;3.77;2.60;;;29.30;1.00;;;;;;5096209;28;21070;-68
2023/05/29 12:17:51;;;;;;;3.43;2.33;;;28.60;1.00;;;;;;5096333;28;20552;-68
2023/05/29 12:20:20;;;;;;;2.63;2.17;;;27.60;1.00;;;;;;5096479;28;20453;-68
2023/05/29 12:22:47;;;;;;;7.03;4.23;;;26.70;1.00;;;;;;5096090;28;20457;-68
2023/05/29 12:25:16;;;;;;;2.93;2.30;;;26.10;1.00;;;;;;5096380;28;20956;-68
2023/05/29 12:27:46;;;;;;;3.50;2.13;;;25.60;1.00;;;;;;5095884;28;20938;-68
2023/05/29 12:30:15;;;;;;;3.70;2.33;;;25.30;1.00;;;;;;5095096;28;20506;-69
2023/05/29 12:32:42;;;;;;;3.57;2.30;;;25.30;1.00;;;;;;5096148;28;20463;-69
2023/05/29 12:35:14;;;;;;;3.60;2.17;;;25.80;1.00;;;;;;5096222;28;20939;-69
2023/05/29 12:37:45;;;;;;;3.37;2.50;;;26.50;1.00;;;;;;5096426;28;20477;-69
2023/05/29 12:40:20;;;;;;;2.40;2.13;;;27.10;1.00;;;;;;5095876;28;20471;-67
2023/05/29 12:42:48;;;;;;;4.40;3.00;;;27.30;1.00;;;;;;5095586;28;20484;-67
2023/05/29 12:45:18;;;;;;;5.20;2.37;;;27.90;1.00;;;;;;5095706;28;20468;-67
2023/05/29 12:47:53;;;;;;;4.93;2.70;;;28.60;1.00;;;;;;5095608;28;20477;-67
2023/05/29 12:50:21;;;;;;;3.90;1.97;;;29.20;1.00;;;;;;5095996;28;20811;-67
2023/05/29 12:52:57;;;;;;;2.70;2.00;;;29.50;1.00;;;;;;5095675;28;20457;-67
2023/05/29 12:55:26;;;;;;;3.80;2.40;;;29.70;1.00;;;;;;5095727;28;20441;-67